sensor_id;sensor_type;location;lat;lon;timestamp;P1;durP1;ratioP1;P2;durP2;ratioP2
66970;SDS011;53901;51.466;-2.588;2023-06-04T00:00:31;5.45;;;2.40;;
66970;SDS011;53901;51.466;-2.588;2023-06-04T00:02:57;8.18;;;3.08;;
66970;SDS011;53901;51.466;-2.588;2023-06-04T00:05:22;7.20;;;2.80;;
66970;SDS011;53901;51.466;-2.588;2023-06-04T00:07:50;9.52;;;3.30;;
66970;SDS011;53901;51.466;-2.588;2023-06-04T00:10:16;12.57;;;2.88;;
66970;SDS011;53901;51.466;-2.588;2023-06-04T00:12:42;11.38;;;3.17;;
66970;SDS011;53901;51.466;-2.588;2023-06-04T00:15:07;9.45;;;3.22;;
66970;SDS011;53901;51.466;-2.588;2023-06-04T00:17:33;19.80;;;3.40;;
66970;SDS011;53901;51.466;-2.588;2023-06-04T00:19:58;7.88;;;3.22;;
66970;SDS011;53901;51.466;-2.588;2023-06-04T00:22:24;6.20;;;2.70;;
66970;SDS011;53901;51.466;-2.588;2023-06-04T00:24:49;10.00;;;3.28;;
66970;SDS011;53901;51.466;-2.588;2023-06-04T00:27:15;11.23;;;2.95;;
66970;SDS011;53901;51.466;-2.588;2023-06-04T00:29:40;10.80;;;3.10;;
66970;SDS011;53901;51.466;-2.588;2023-06-04T00:32:05;10.63;;;3.22;;
66970;SDS011;53901;51.466;-2.588;2023-06-04T00:34:31;10.20;;;3.08;;
66970;SDS011;53901;51.466;-2.588;2023-06-04T00:36:56;8.20;;;3.22;;
66970;SDS011;53901;51.466;-2.588;2023-06-04T00:39:22;13.25;;;3.10;;
66970;SDS011;53901;51.466;-2.588;2023-06-04T00:41:47;10.75;;;3.08;;
66970;SDS011;53901;51.466;-2.588;2023-06-04T00:44:13;10.35;;;3.47;;
66970;SDS011;53901;51.466;-2.588;2023-06-04T00:46:38;10.60;;;2.97;;
66970;SDS011;53901;51.466;-2.588;2023-06-04T00:49:04;11.52;;;3.08;;
66970;SDS011;53901;51.466;-2.588;2023-06-04T00:51:31;9.38;;;3.25;;
66970;SDS011;53901;51.466;-2.588;2023-06-04T00:53:56;9.85;;;3.53;;
66970;SDS011;53901;51.466;-2.588;2023-06-04T00:56:23;11.25;;;3.17;;
66970;SDS011;53901;51.466;-2.588;2023-06-04T00:58:48;10.82;;;3.28;;
66970;SDS011;53901;51.466;-2.588;2023-06-04T01:01:25;8.40;;;3.00;;
66970;SDS011;53901;51.466;-2.588;2023-06-04T01:03:54;6.90;;;3.28;;
66970;SDS011;53901;51.466;-2.588;2023-06-04T01:06:22;14.18;;;3.40;;
66970;SDS011;53901;51.466;-2.588;2023-06-04T01:09:01;7.70;;;3.38;;
66970;SDS011;53901;51.466;-2.588;2023-06-04T01:11:30;13.13;;;3.63;;
66970;SDS011;53901;51.466;-2.588;2023-06-04T01:14:00;12.32;;;3.60;;
66970;SDS011;53901;51.466;-2.588;2023-06-04T01:16:26;11.70;;;3.47;;
66970;SDS011;53901;51.466;-2.588;2023-06-04T01:18:55;8.60;;;2.95;;
66970;SDS011;53901;51.466;-2.588;2023-06-04T01:21:23;8.98;;;3.40;;
66970;SDS011;53901;51.466;-2.588;2023-06-04T01:23:51;9.75;;;3.10;;
66970;SDS011;53901;51.466;-2.588;2023-06-04T01:26:27;9.38;;;3.35;;
66970;SDS011;53901;51.466;-2.588;2023-06-04T01:28:56;12.00;;;3.63;;
66970;SDS011;53901;51.466;-2.588;2023-06-04T01:31:23;9.65;;;3.50;;
66970;SDS011;53901;51.466;-2.588;2023-06-04T01:33:55;10.18;;;3.13;;
66970;SDS011;53901;51.466;-2.588;2023-06-04T01:36:22;9.65;;;3.13;;
66970;SDS011;53901;51.466;-2.588;2023-06-04T01:38:48;8.05;;;3.20;;
66970;SDS011;53901;51.466;-2.588;2023-06-04T01:41:13;10.65;;;2.95;;
66970;SDS011;53901;51.466;-2.588;2023-06-04T01:43:39;9.18;;;3.20;;
66970;SDS011;53901;51.466;-2.588;2023-06-04T01:46:04;10.38;;;3.28;;
66970;SDS011;53901;51.466;-2.588;2023-06-04T01:48:30;15.27;;;3.40;;
66970;SDS011;53901;51.466;-2.588;2023-06-04T01:50:56;11.73;;;3.40;;
66970;SDS011;53901;51.466;-2.588;2023-06-04T01:53:22;11.68;;;3.15;;
66970;SDS011;53901;51.466;-2.588;2023-06-04T01:55:47;7.35;;;2.92;;
66970;SDS011;53901;51.466;-2.588;2023-06-04T01:58:14;12.65;;;3.00;;
66970;SDS011;53901;51.466;-2.588;2023-06-04T02:00:43;13.35;;;3.55;;
66970;SDS011;53901;51.466;-2.588;2023-06-04T02:03:08;14.88;;;3.70;;
66970;SDS011;53901;51.466;-2.588;2023-06-04T02:05:35;10.02;;;2.83;;
66970;SDS011;53901;51.466;-2.588;2023-06-04T02:08:01;11.13;;;3.00;;
66970;SDS011;53901;51.466;-2.588;2023-06-04T02:10:30;15.52;;;3.20;;
66970;SDS011;53901;51.466;-2.588;2023-06-04T02:13:02;7.70;;;3.10;;
66970;SDS011;53901;51.466;-2.588;2023-06-04T02:15:28;11.68;;;3.03;;
66970;SDS011;53901;51.466;-2.588;2023-06-04T02:17:56;9.52;;;3.10;;
66970;SDS011;53901;51.466;-2.588;2023-06-04T02:20:28;8.93;;;2.97;;
66970;SDS011;53901;51.466;-2.588;2023-06-04T02:22:56;11.07;;;2.95;;
66970;SDS011;53901;51.466;-2.588;2023-06-04T02:25:22;11.27;;;2.58;;
66970;SDS011;53901;51.466;-2.588;2023-06-04T02:27:48;7.65;;;2.72;;
66970;SDS011;53901;51.466;-2.588;2023-06-04T02:30:13;10.30;;;2.80;;
66970;SDS011;53901;51.466;-2.588;2023-06-04T02:32:41;10.70;;;2.95;;
66970;SDS011;53901;51.466;-2.588;2023-06-04T02:35:09;9.57;;;2.92;;
66970;SDS011;53901;51.466;-2.588;2023-06-04T02:37:35;11.70;;;3.08;;
66970;SDS011;53901;51.466;-2.588;2023-06-04T02:40:00;10.50;;;2.95;;
66970;SDS011;53901;51.466;-2.588;2023-06-04T02:42:26;8.88;;;3.10;;
66970;SDS011;53901;51.466;-2.588;2023-06-04T02:44:51;5.90;;;2.28;;
66970;SDS011;53901;51.466;-2.588;2023-06-04T02:47:16;10.02;;;3.60;;
66970;SDS011;53901;51.466;-2.588;2023-06-04T02:49:44;12.65;;;3.40;;
66970;SDS011;53901;51.466;-2.588;2023-06-04T02:52:10;14.40;;;3.35;;
66970;SDS011;53901;51.466;-2.588;2023-06-04T02:54:35;14.63;;;3.40;;
66970;SDS011;53901;51.466;-2.588;2023-06-04T02:57:01;10.40;;;2.92;;
66970;SDS011;53901;51.466;-2.588;2023-06-04T02:59:26;14.15;;;2.97;;
66970;SDS011;53901;51.466;-2.588;2023-06-04T03:01:52;16.35;;;3.13;;
66970;SDS011;53901;51.466;-2.588;2023-06-04T03:04:17;7.82;;;2.80;;
66970;SDS011;53901;51.466;-2.588;2023-06-04T03:06:42;10.75;;;2.90;;
66970;SDS011;53901;51.466;-2.588;2023-06-04T03:09:10;9.10;;;2.72;;
66970;SDS011;53901;51.466;-2.588;2023-06-04T03:11:36;8.27;;;2.85;;
66970;SDS011;53901;51.466;-2.588;2023-06-04T03:14:01;12.02;;;3.10;;
66970;SDS011;53901;51.466;-2.588;2023-06-04T03:16:27;13.40;;;3.67;;
66970;SDS011;53901;51.466;-2.588;2023-06-04T03:18:52;12.00;;;3.05;;
66970;SDS011;53901;51.466;-2.588;2023-06-04T03:21:18;9.43;;;2.75;;
66970;SDS011;53901;51.466;-2.588;2023-06-04T03:23:43;8.20;;;2.55;;
66970;SDS011;53901;51.466;-2.588;2023-06-04T03:26:09;11.15;;;2.60;;
66970;SDS011;53901;51.466;-2.588;2023-06-04T03:28:37;9.50;;;2.67;;
66970;SDS011;53901;51.466;-2.588;2023-06-04T03:31:03;8.45;;;2.67;;
66970;SDS011;53901;51.466;-2.588;2023-06-04T03:33:28;7.57;;;2.75;;
66970;SDS011;53901;51.466;-2.588;2023-06-04T03:35:53;9.15;;;2.65;;
66970;SDS011;53901;51.466;-2.588;2023-06-04T03:38:22;10.63;;;3.20;;
66970;SDS011;53901;51.466;-2.588;2023-06-04T03:40:48;9.50;;;3.13;;
66970;SDS011;53901;51.466;-2.588;2023-06-04T03:43:14;9.45;;;2.92;;
66970;SDS011;53901;51.466;-2.588;2023-06-04T03:45:39;15.38;;;3.20;;
66970;SDS011;53901;51.466;-2.588;2023-06-04T03:48:04;10.75;;;3.08;;
66970;SDS011;53901;51.466;-2.588;2023-06-04T03:50:30;9.73;;;2.95;;
66970;SDS011;53901;51.466;-2.588;2023-06-04T03:52:56;12.55;;;2.97;;
66970;SDS011;53901;51.466;-2.588;2023-06-04T03:55:21;9.00;;;2.50;;
66970;SDS011;53901;51.466;-2.588;2023-06-04T03:57:47;8.82;;;2.72;;
66970;SDS011;53901;51.466;-2.588;2023-06-04T04:00:13;9.02;;;2.67;;
66970;SDS011;53901;51.466;-2.588;2023-06-04T04:02:39;8.25;;;2.67;;
66970;SDS011;53901;51.466;-2.588;2023-06-04T04:05:05;9.40;;;3.20;;
66970;SDS011;53901;51.466;-2.588;2023-06-04T04:07:31;10.52;;;2.97;;
66970;SDS011;53901;51.466;-2.588;2023-06-04T04:09:56;5.75;;;2.70;;
66970;SDS011;53901;51.466;-2.588;2023-06-04T04:12:22;12.38;;;2.70;;
66970;SDS011;53901;51.466;-2.588;2023-06-04T04:14:47;10.27;;;3.33;;
66970;SDS011;53901;51.466;-2.588;2023-06-04T04:17:13;7.88;;;3.00;;
66970;SDS011;53901;51.466;-2.588;2023-06-04T04:19:39;6.95;;;2.88;;
66970;SDS011;53901;51.466;-2.588;2023-06-04T04:22:05;7.93;;;3.22;;
66970;SDS011;53901;51.466;-2.588;2023-06-04T04:24:31;12.45;;;3.30;;
66970;SDS011;53901;51.466;-2.588;2023-06-04T04:26:59;10.55;;;3.63;;
66970;SDS011;53901;51.466;-2.588;2023-06-04T04:29:25;11.23;;;3.45;;
66970;SDS011;53901;51.466;-2.588;2023-06-04T04:31:54;10.00;;;3.50;;
66970;SDS011;53901;51.466;-2.588;2023-06-04T04:34:22;9.10;;;3.58;;
66970;SDS011;53901;51.466;-2.588;2023-06-04T04:36:50;10.75;;;3.55;;
66970;SDS011;53901;51.466;-2.588;2023-06-04T04:39:17;7.13;;;3.10;;
66970;SDS011;53901;51.466;-2.588;2023-06-04T04:41:44;10.88;;;3.13;;
66970;SDS011;53901;51.466;-2.588;2023-06-04T04:44:09;9.13;;;3.17;;
66970;SDS011;53901;51.466;-2.588;2023-06-04T04:46:35;9.27;;;3.20;;
66970;SDS011;53901;51.466;-2.588;2023-06-04T04:49:00;8.95;;;3.47;;
66970;SDS011;53901;51.466;-2.588;2023-06-04T04:51:25;12.88;;;3.53;;
66970;SDS011;53901;51.466;-2.588;2023-06-04T04:53:51;10.77;;;3.08;;
66970;SDS011;53901;51.466;-2.588;2023-06-04T04:56:16;10.45;;;3.78;;
66970;SDS011;53901;51.466;-2.588;2023-06-04T04:58:41;10.35;;;3.55;;
66970;SDS011;53901;51.466;-2.588;2023-06-04T05:01:07;8.25;;;3.00;;
66970;SDS011;53901;51.466;-2.588;2023-06-04T05:03:32;6.43;;;3.22;;
66970;SDS011;53901;51.466;-2.588;2023-06-04T05:05:58;14.55;;;3.80;;
66970;SDS011;53901;51.466;-2.588;2023-06-04T05:08:23;7.68;;;3.42;;
66970;SDS011;53901;51.466;-2.588;2023-06-04T05:10:49;8.63;;;3.60;;
66970;SDS011;53901;51.466;-2.588;2023-06-04T05:13:15;5.93;;;3.55;;
66970;SDS011;53901;51.466;-2.588;2023-06-04T05:15:41;7.88;;;3.53;;
66970;SDS011;53901;51.466;-2.588;2023-06-04T05:18:07;7.88;;;3.40;;
66970;SDS011;53901;51.466;-2.588;2023-06-04T05:20:33;10.65;;;4.10;;
66970;SDS011;53901;51.466;-2.588;2023-06-04T05:23:00;8.15;;;3.75;;
66970;SDS011;53901;51.466;-2.588;2023-06-04T05:25:25;10.90;;;3.88;;
66970;SDS011;53901;51.466;-2.588;2023-06-04T05:27:52;9.75;;;3.47;;
66970;SDS011;53901;51.466;-2.588;2023-06-04T05:30:17;15.43;;;3.65;;
66970;SDS011;53901;51.466;-2.588;2023-06-04T05:32:43;9.48;;;3.40;;
66970;SDS011;53901;51.466;-2.588;2023-06-04T05:35:08;9.77;;;3.47;;
66970;SDS011;53901;51.466;-2.588;2023-06-04T05:37:34;8.73;;;3.85;;
66970;SDS011;53901;51.466;-2.588;2023-06-04T05:40:00;11.10;;;3.58;;
66970;SDS011;53901;51.466;-2.588;2023-06-04T05:42:25;8.25;;;3.65;;
66970;SDS011;53901;51.466;-2.588;2023-06-04T05:44:51;12.27;;;3.60;;
66970;SDS011;53901;51.466;-2.588;2023-06-04T05:47:17;10.75;;;3.50;;
66970;SDS011;53901;51.466;-2.588;2023-06-04T05:49:43;9.10;;;3.03;;
66970;SDS011;53901;51.466;-2.588;2023-06-04T05:52:09;10.35;;;3.83;;
66970;SDS011;53901;51.466;-2.588;2023-06-04T05:54:34;12.90;;;3.85;;
66970;SDS011;53901;51.466;-2.588;2023-06-04T05:57:01;11.15;;;3.65;;
66970;SDS011;53901;51.466;-2.588;2023-06-04T05:59:27;7.60;;;3.22;;
66970;SDS011;53901;51.466;-2.588;2023-06-04T06:01:53;17.77;;;3.65;;
66970;SDS011;53901;51.466;-2.588;2023-06-04T06:04:19;13.13;;;3.70;;
66970;SDS011;53901;51.466;-2.588;2023-06-04T06:06:45;9.57;;;3.78;;
66970;SDS011;53901;51.466;-2.588;2023-06-04T06:09:12;9.95;;;3.85;;
66970;SDS011;53901;51.466;-2.588;2023-06-04T06:11:37;15.05;;;4.13;;
66970;SDS011;53901;51.466;-2.588;2023-06-04T06:14:03;10.57;;;3.80;;
66970;SDS011;53901;51.466;-2.588;2023-06-04T06:16:28;13.95;;;3.75;;
66970;SDS011;53901;51.466;-2.588;2023-06-04T06:18:55;8.82;;;3.80;;
66970;SDS011;53901;51.466;-2.588;2023-06-04T06:21:20;8.80;;;3.92;;
66970;SDS011;53901;51.466;-2.588;2023-06-04T06:23:45;5.57;;;3.15;;
66970;SDS011;53901;51.466;-2.588;2023-06-04T06:26:11;8.57;;;3.58;;
66970;SDS011;53901;51.466;-2.588;2023-06-04T06:28:37;11.30;;;3.95;;
66970;SDS011;53901;51.466;-2.588;2023-06-04T06:31:02;10.82;;;3.78;;
66970;SDS011;53901;51.466;-2.588;2023-06-04T06:33:28;19.85;;;3.78;;
66970;SDS011;53901;51.466;-2.588;2023-06-04T06:35:53;10.30;;;3.90;;
66970;SDS011;53901;51.466;-2.588;2023-06-04T06:38:19;12.10;;;4.10;;
66970;SDS011;53901;51.466;-2.588;2023-06-04T06:40:44;9.07;;;3.40;;
66970;SDS011;53901;51.466;-2.588;2023-06-04T06:43:10;9.93;;;3.67;;
66970;SDS011;53901;51.466;-2.588;2023-06-04T06:45:36;8.35;;;3.70;;
66970;SDS011;53901;51.466;-2.588;2023-06-04T06:48:02;11.88;;;4.30;;
66970;SDS011;53901;51.466;-2.588;2023-06-04T06:50:27;12.57;;;3.88;;
66970;SDS011;53901;51.466;-2.588;2023-06-04T06:52:52;13.98;;;4.50;;
66970;SDS011;53901;51.466;-2.588;2023-06-04T06:55:18;11.38;;;3.75;;
66970;SDS011;53901;51.466;-2.588;2023-06-04T06:57:43;12.13;;;4.15;;
66970;SDS011;53901;51.466;-2.588;2023-06-04T07:00:09;9.70;;;3.58;;
66970;SDS011;53901;51.466;-2.588;2023-06-04T07:02:35;10.90;;;3.60;;
66970;SDS011;53901;51.466;-2.588;2023-06-04T07:05:01;11.13;;;3.72;;
66970;SDS011;53901;51.466;-2.588;2023-06-04T07:07:26;8.32;;;3.40;;
66970;SDS011;53901;51.466;-2.588;2023-06-04T07:09:52;12.45;;;4.25;;
66970;SDS011;53901;51.466;-2.588;2023-06-04T07:12:17;10.93;;;4.10;;
66970;SDS011;53901;51.466;-2.588;2023-06-04T07:14:43;13.02;;;3.60;;
66970;SDS011;53901;51.466;-2.588;2023-06-04T07:17:08;10.10;;;3.35;;
66970;SDS011;53901;51.466;-2.588;2023-06-04T07:19:33;7.93;;;3.25;;
66970;SDS011;53901;51.466;-2.588;2023-06-04T07:21:59;8.13;;;3.47;;
66970;SDS011;53901;51.466;-2.588;2023-06-04T07:24:24;11.48;;;3.83;;
66970;SDS011;53901;51.466;-2.588;2023-06-04T07:26:50;7.63;;;3.45;;
66970;SDS011;53901;51.466;-2.588;2023-06-04T07:29:15;9.85;;;3.22;;
66970;SDS011;53901;51.466;-2.588;2023-06-04T07:31:41;9.15;;;3.53;;
66970;SDS011;53901;51.466;-2.588;2023-06-04T07:34:06;8.32;;;3.10;;
66970;SDS011;53901;51.466;-2.588;2023-06-04T07:36:32;8.63;;;3.33;;
66970;SDS011;53901;51.466;-2.588;2023-06-04T07:38:58;9.57;;;3.58;;
66970;SDS011;53901;51.466;-2.588;2023-06-04T07:41:24;8.57;;;3.22;;
66970;SDS011;53901;51.466;-2.588;2023-06-04T07:43:50;7.88;;;3.30;;
66970;SDS011;53901;51.466;-2.588;2023-06-04T07:46:16;7.07;;;3.05;;
66970;SDS011;53901;51.466;-2.588;2023-06-04T07:48:43;9.48;;;3.10;;
66970;SDS011;53901;51.466;-2.588;2023-06-04T07:51:09;8.40;;;3.53;;
66970;SDS011;53901;51.466;-2.588;2023-06-04T07:53:36;8.70;;;3.08;;
66970;SDS011;53901;51.466;-2.588;2023-06-04T07:56:02;9.63;;;3.40;;
66970;SDS011;53901;51.466;-2.588;2023-06-04T07:58:28;7.55;;;2.80;;
66970;SDS011;53901;51.466;-2.588;2023-06-04T08:00:53;7.30;;;3.00;;
66970;SDS011;53901;51.466;-2.588;2023-06-04T08:03:18;10.43;;;3.58;;
66970;SDS011;53901;51.466;-2.588;2023-06-04T08:05:45;7.63;;;3.17;;
66970;SDS011;53901;51.466;-2.588;2023-06-04T08:08:10;9.70;;;2.60;;
66970;SDS011;53901;51.466;-2.588;2023-06-04T08:10:36;6.65;;;2.75;;
66970;SDS011;53901;51.466;-2.588;2023-06-04T08:13:01;9.65;;;3.58;;
66970;SDS011;53901;51.466;-2.588;2023-06-04T08:15:27;7.38;;;3.03;;
66970;SDS011;53901;51.466;-2.588;2023-06-04T08:17:53;10.95;;;3.40;;
66970;SDS011;53901;51.466;-2.588;2023-06-04T08:20:18;7.22;;;3.10;;
66970;SDS011;53901;51.466;-2.588;2023-06-04T08:22:43;10.05;;;3.40;;
66970;SDS011;53901;51.466;-2.588;2023-06-04T08:25:09;6.35;;;2.70;;
66970;SDS011;53901;51.466;-2.588;2023-06-04T08:27:34;8.98;;;2.70;;
66970;SDS011;53901;51.466;-2.588;2023-06-04T08:30:00;7.90;;;2.58;;
66970;SDS011;53901;51.466;-2.588;2023-06-04T08:32:27;9.32;;;3.17;;
66970;SDS011;53901;51.466;-2.588;2023-06-04T08:34:52;7.25;;;3.05;;
66970;SDS011;53901;51.466;-2.588;2023-06-04T08:37:17;8.18;;;2.65;;
66970;SDS011;53901;51.466;-2.588;2023-06-04T08:39:43;9.23;;;2.78;;
66970;SDS011;53901;51.466;-2.588;2023-06-04T08:42:09;5.03;;;2.63;;
66970;SDS011;53901;51.466;-2.588;2023-06-04T08:44:46;7.80;;;2.83;;
66970;SDS011;53901;51.466;-2.588;2023-06-04T08:47:16;6.65;;;2.78;;
66970;SDS011;53901;51.466;-2.588;2023-06-04T08:49:43;6.40;;;2.90;;
66970;SDS011;53901;51.466;-2.588;2023-06-04T08:52:09;7.28;;;2.60;;
66970;SDS011;53901;51.466;-2.588;2023-06-04T08:54:35;10.63;;;2.67;;
66970;SDS011;53901;51.466;-2.588;2023-06-04T08:57:01;7.55;;;2.40;;
66970;SDS011;53901;51.466;-2.588;2023-06-04T08:59:27;5.35;;;2.55;;
66970;SDS011;53901;51.466;-2.588;2023-06-04T09:01:53;12.00;;;2.50;;
66970;SDS011;53901;51.466;-2.588;2023-06-04T09:04:19;8.60;;;2.55;;
66970;SDS011;53901;51.466;-2.588;2023-06-04T09:06:45;4.57;;;1.98;;
66970;SDS011;53901;51.466;-2.588;2023-06-04T09:09:11;8.45;;;2.42;;
66970;SDS011;53901;51.466;-2.588;2023-06-04T09:11:43;7.00;;;2.30;;
66970;SDS011;53901;51.466;-2.588;2023-06-04T09:14:12;4.15;;;2.08;;
66970;SDS011;53901;51.466;-2.588;2023-06-04T09:16:48;5.40;;;2.20;;
66970;SDS011;53901;51.466;-2.588;2023-06-04T09:19:14;7.97;;;2.50;;
66970;SDS011;53901;51.466;-2.588;2023-06-04T09:21:50;5.78;;;1.75;;
66970;SDS011;53901;51.466;-2.588;2023-06-04T09:24:17;3.95;;;2.00;;
66970;SDS011;53901;51.466;-2.588;2023-06-04T09:26:47;5.95;;;2.20;;
66970;SDS011;53901;51.466;-2.588;2023-06-04T09:29:12;6.80;;;2.15;;
66970;SDS011;53901;51.466;-2.588;2023-06-04T09:31:39;5.60;;;1.90;;
66970;SDS011;53901;51.466;-2.588;2023-06-04T09:34:05;5.65;;;2.05;;
66970;SDS011;53901;51.466;-2.588;2023-06-04T09:36:31;6.22;;;2.10;;
66970;SDS011;53901;51.466;-2.588;2023-06-04T09:39:01;4.30;;;1.52;;
66970;SDS011;53901;51.466;-2.588;2023-06-04T09:41:30;4.15;;;1.60;;
66970;SDS011;53901;51.466;-2.588;2023-06-04T09:43:59;5.13;;;1.77;;
66970;SDS011;53901;51.466;-2.588;2023-06-04T09:46:28;6.60;;;1.60;;
66970;SDS011;53901;51.466;-2.588;2023-06-04T09:49:03;3.80;;;1.60;;
66970;SDS011;53901;51.466;-2.588;2023-06-04T09:51:29;6.43;;;1.50;;
66970;SDS011;53901;51.466;-2.588;2023-06-04T09:56:25;5.90;;;1.60;;
66970;SDS011;53901;51.466;-2.588;2023-06-04T09:58:55;8.30;;;1.50;;
66970;SDS011;53901;51.466;-2.588;2023-06-04T10:01:23;5.32;;;1.70;;
66970;SDS011;53901;51.466;-2.588;2023-06-04T10:03:50;5.75;;;1.75;;
66970;SDS011;53901;51.466;-2.588;2023-06-04T10:06:17;3.58;;;1.92;;
66970;SDS011;53901;51.466;-2.588;2023-06-04T10:08:44;6.15;;;1.50;;
66970;SDS011;53901;51.466;-2.588;2023-06-04T10:11:11;4.20;;;1.63;;
66970;SDS011;53901;51.466;-2.588;2023-06-04T10:13:41;6.60;;;1.70;;
66970;SDS011;53901;51.466;-2.588;2023-06-04T10:16:10;4.53;;;1.63;;
66970;SDS011;53901;51.466;-2.588;2023-06-04T10:18:36;5.65;;;1.80;;
66970;SDS011;53901;51.466;-2.588;2023-06-04T10:21:02;7.22;;;1.83;;
66970;SDS011;53901;51.466;-2.588;2023-06-04T10:23:28;4.63;;;1.65;;
66970;SDS011;53901;51.466;-2.588;2023-06-04T10:25:54;4.18;;;1.45;;
66970;SDS011;53901;51.466;-2.588;2023-06-04T10:28:20;5.05;;;1.70;;
66970;SDS011;53901;51.466;-2.588;2023-06-04T10:30:48;5.95;;;1.60;;
66970;SDS011;53901;51.466;-2.588;2023-06-04T10:33:19;6.32;;;2.10;;
66970;SDS011;53901;51.466;-2.588;2023-06-04T10:35:45;5.50;;;1.77;;
66970;SDS011;53901;51.466;-2.588;2023-06-04T10:38:11;4.85;;;1.60;;
66970;SDS011;53901;51.466;-2.588;2023-06-04T10:40:39;5.22;;;1.70;;
66970;SDS011;53901;51.466;-2.588;2023-06-04T10:43:14;7.40;;;1.75;;
66970;SDS011;53901;51.466;-2.588;2023-06-04T10:45:41;4.03;;;1.65;;
66970;SDS011;53901;51.466;-2.588;2023-06-04T10:48:07;4.65;;;1.80;;
66970;SDS011;53901;51.466;-2.588;2023-06-04T10:50:35;11.20;;;2.20;;
66970;SDS011;53901;51.466;-2.588;2023-06-04T10:53:13;5.30;;;1.75;;
66970;SDS011;53901;51.466;-2.588;2023-06-04T10:55:45;10.40;;;2.22;;
66970;SDS011;53901;51.466;-2.588;2023-06-04T10:58:13;5.27;;;2.10;;
66970;SDS011;53901;51.466;-2.588;2023-06-04T11:00:43;4.75;;;1.90;;
66970;SDS011;53901;51.466;-2.588;2023-06-04T11:03:11;5.93;;;1.85;;
66970;SDS011;53901;51.466;-2.588;2023-06-04T11:05:41;4.47;;;1.30;;
66970;SDS011;53901;51.466;-2.588;2023-06-04T11:08:13;7.05;;;1.70;;
66970;SDS011;53901;51.466;-2.588;2023-06-04T11:10:48;4.15;;;1.65;;
66970;SDS011;53901;51.466;-2.588;2023-06-04T11:13:14;5.07;;;1.30;;
66970;SDS011;53901;51.466;-2.588;2023-06-04T11:18:08;11.30;;;1.90;;
66970;SDS011;53901;51.466;-2.588;2023-06-04T11:20:38;6.93;;;1.60;;
66970;SDS011;53901;51.466;-2.588;2023-06-04T11:23:04;4.35;;;1.40;;
66970;SDS011;53901;51.466;-2.588;2023-06-04T11:25:31;18.83;;;1.75;;
66970;SDS011;53901;51.466;-2.588;2023-06-04T11:27:58;2.42;;;1.25;;
66970;SDS011;53901;51.466;-2.588;2023-06-04T11:30:24;4.32;;;1.30;;
66970;SDS011;53901;51.466;-2.588;2023-06-04T11:32:50;4.63;;;1.42;;
66970;SDS011;53901;51.466;-2.588;2023-06-04T11:35:15;2.60;;;1.15;;
66970;SDS011;53901;51.466;-2.588;2023-06-04T11:37:41;4.95;;;1.30;;
66970;SDS011;53901;51.466;-2.588;2023-06-04T11:40:19;3.38;;;1.40;;
66970;SDS011;53901;51.466;-2.588;2023-06-04T11:42:45;4.93;;;1.40;;
66970;SDS011;53901;51.466;-2.588;2023-06-04T11:45:15;4.00;;;1.45;;
66970;SDS011;53901;51.466;-2.588;2023-06-04T11:47:48;4.70;;;1.30;;
66970;SDS011;53901;51.466;-2.588;2023-06-04T11:50:16;4.07;;;1.50;;
66970;SDS011;53901;51.466;-2.588;2023-06-04T11:52:42;6.75;;;1.50;;
66970;SDS011;53901;51.466;-2.588;2023-06-04T11:55:08;6.18;;;1.75;;
66970;SDS011;53901;51.466;-2.588;2023-06-04T11:57:35;5.85;;;1.38;;
66970;SDS011;53901;51.466;-2.588;2023-06-04T12:00:01;8.20;;;1.50;;
66970;SDS011;53901;51.466;-2.588;2023-06-04T12:02:27;6.88;;;1.40;;
66970;SDS011;53901;51.466;-2.588;2023-06-04T12:04:52;4.13;;;1.30;;
66970;SDS011;53901;51.466;-2.588;2023-06-04T12:07:21;3.35;;;1.40;;
66970;SDS011;53901;51.466;-2.588;2023-06-04T12:09:50;5.18;;;1.20;;
66970;SDS011;53901;51.466;-2.588;2023-06-04T12:12:20;4.10;;;1.30;;
66970;SDS011;53901;51.466;-2.588;2023-06-04T12:14:46;4.00;;;1.50;;
66970;SDS011;53901;51.466;-2.588;2023-06-04T12:17:12;6.25;;;3.90;;
66970;SDS011;53901;51.466;-2.588;2023-06-04T12:19:47;4.03;;;1.33;;
66970;SDS011;53901;51.466;-2.588;2023-06-04T12:22:13;7.30;;;1.60;;
66970;SDS011;53901;51.466;-2.588;2023-06-04T12:24:49;4.80;;;1.58;;
66970;SDS011;53901;51.466;-2.588;2023-06-04T12:27:18;5.15;;;1.83;;
66970;SDS011;53901;51.466;-2.588;2023-06-04T12:29:53;5.55;;;1.45;;
66970;SDS011;53901;51.466;-2.588;2023-06-04T12:32:40;3.47;;;1.30;;
66970;SDS011;53901;51.466;-2.588;2023-06-04T12:35:07;7.72;;;1.65;;
66970;SDS011;53901;51.466;-2.588;2023-06-04T12:37:33;7.10;;;1.70;;
66970;SDS011;53901;51.466;-2.588;2023-06-04T12:39:58;3.83;;;1.55;;
66970;SDS011;53901;51.466;-2.588;2023-06-04T12:42:23;5.18;;;1.60;;
66970;SDS011;53901;51.466;-2.588;2023-06-04T12:44:49;8.40;;;1.50;;
66970;SDS011;53901;51.466;-2.588;2023-06-04T12:47:14;5.30;;;1.45;;
66970;SDS011;53901;51.466;-2.588;2023-06-04T12:49:41;3.80;;;1.50;;
66970;SDS011;53901;51.466;-2.588;2023-06-04T12:52:07;3.67;;;1.50;;
66970;SDS011;53901;51.466;-2.588;2023-06-04T12:54:32;3.88;;;1.35;;
66970;SDS011;53901;51.466;-2.588;2023-06-04T12:56:58;5.25;;;1.50;;
66970;SDS011;53901;51.466;-2.588;2023-06-04T12:59:24;4.97;;;1.50;;
66970;SDS011;53901;51.466;-2.588;2023-06-04T13:01:51;3.67;;;1.45;;
66970;SDS011;53901;51.466;-2.588;2023-06-04T13:04:17;4.28;;;1.67;;
66970;SDS011;53901;51.466;-2.588;2023-06-04T13:06:42;4.35;;;1.63;;
66970;SDS011;53901;51.466;-2.588;2023-06-04T13:09:08;2.78;;;1.30;;
66970;SDS011;53901;51.466;-2.588;2023-06-04T13:11:37;2.33;;;1.40;;
66970;SDS011;53901;51.466;-2.588;2023-06-04T13:14:03;4.80;;;1.80;;
66970;SDS011;53901;51.466;-2.588;2023-06-04T13:16:29;4.45;;;1.45;;
66970;SDS011;53901;51.466;-2.588;2023-06-04T13:18:54;4.85;;;1.50;;
66970;SDS011;53901;51.466;-2.588;2023-06-04T13:21:20;4.60;;;1.58;;
66970;SDS011;53901;51.466;-2.588;2023-06-04T13:23:45;5.57;;;1.92;;
66970;SDS011;53901;51.466;-2.588;2023-06-04T13:26:11;3.60;;;1.50;;
66970;SDS011;53901;51.466;-2.588;2023-06-04T13:28:37;4.88;;;1.55;;
66970;SDS011;53901;51.466;-2.588;2023-06-04T13:31:02;3.47;;;1.40;;
66970;SDS011;53901;51.466;-2.588;2023-06-04T13:33:28;5.78;;;1.45;;
66970;SDS011;53901;51.466;-2.588;2023-06-04T13:35:59;3.78;;;1.70;;
66970;SDS011;53901;51.466;-2.588;2023-06-04T13:38:25;2.45;;;1.27;;
66970;SDS011;53901;51.466;-2.588;2023-06-04T13:40:51;8.95;;;1.83;;
66970;SDS011;53901;51.466;-2.588;2023-06-04T13:43:17;3.97;;;1.35;;
66970;SDS011;53901;51.466;-2.588;2023-06-04T13:45:42;4.18;;;1.70;;
66970;SDS011;53901;51.466;-2.588;2023-06-04T13:48:10;3.10;;;1.40;;
66970;SDS011;53901;51.466;-2.588;2023-06-04T13:50:35;6.07;;;2.03;;
66970;SDS011;53901;51.466;-2.588;2023-06-04T13:53:00;5.63;;;1.75;;
66970;SDS011;53901;51.466;-2.588;2023-06-04T13:55:26;3.65;;;1.70;;
66970;SDS011;53901;51.466;-2.588;2023-06-04T13:57:51;5.07;;;1.55;;
66970;SDS011;53901;51.466;-2.588;2023-06-04T14:00:17;7.88;;;1.63;;
66970;SDS011;53901;51.466;-2.588;2023-06-04T14:02:42;5.28;;;1.60;;
66970;SDS011;53901;51.466;-2.588;2023-06-04T14:05:11;3.33;;;1.60;;
66970;SDS011;53901;51.466;-2.588;2023-06-04T14:07:36;4.55;;;1.83;;
66970;SDS011;53901;51.466;-2.588;2023-06-04T14:10:02;5.80;;;1.50;;
66970;SDS011;53901;51.466;-2.588;2023-06-04T14:12:28;4.00;;;1.70;;
66970;SDS011;53901;51.466;-2.588;2023-06-04T14:14:53;3.90;;;1.60;;
66970;SDS011;53901;51.466;-2.588;2023-06-04T14:17:18;2.83;;;1.40;;
66970;SDS011;53901;51.466;-2.588;2023-06-04T14:19:44;2.92;;;1.35;;
66970;SDS011;53901;51.466;-2.588;2023-06-04T14:22:10;6.32;;;1.55;;
66970;SDS011;53901;51.466;-2.588;2023-06-04T14:24:36;3.60;;;1.73;;
66970;SDS011;53901;51.466;-2.588;2023-06-04T14:27:02;4.15;;;1.83;;
66970;SDS011;53901;51.466;-2.588;2023-06-04T14:29:28;4.40;;;1.67;;
66970;SDS011;53901;51.466;-2.588;2023-06-04T14:31:53;3.00;;;1.70;;